sensor_id;sensor_type;location;lat;lon;timestamp;pressure;altitude;pressure_sealevel;temperature;humidity
141;BME280;65;48.778;9.160;2022-12-17T00:00:13;98880.97;;;-5.43;100.00
141;BME280;65;48.778;9.160;2022-12-17T00:02:58;98878.56;;;-5.27;100.00
141;BME280;65;48.778;9.160;2022-12-17T00:05:42;98887.25;;;-5.19;100.00
141;BME280;65;48.778;9.160;2022-12-17T00:08:26;98882.97;;;-5.19;100.00
141;BME280;65;48.778;9.160;2022-12-17T00:11:10;98887.22;;;-5.21;100.00
141;BME280;65;48.778;9.160;2022-12-17T00:13:53;98891.56;;;-5.20;100.00
141;BME280;65;48.778;9.160;2022-12-17T00:16:37;98889.94;;;-5.10;100.00
141;BME280;65;48.778;9.160;2022-12-17T00:19:21;98891.75;;;-4.98;100.00
141;BME280;65;48.778;9.160;2022-12-17T00:22:05;98898.66;;;-4.96;100.00
141;BME280;65;48.778;9.160;2022-12-17T00:24:49;98901.25;;;-4.93;100.00
141;BME280;65;48.778;9.160;2022-12-17T00:27:32;98892.63;;;-4.98;100.00
141;BME280;65;48.778;9.160;2022-12-17T00:30:16;98902.88;;;-5.04;100.00
141;BME280;65;48.778;9.160;2022-12-17T00:33:00;98907.88;;;-5.19;100.00
141;BME280;65;48.778;9.160;2022-12-17T00:35:50;98913.59;;;-5.42;100.00
141;BME280;65;48.778;9.160;2022-12-17T00:38:34;98910.03;;;-5.54;100.00
141;BME280;65;48.778;9.160;2022-12-17T00:41:17;98912.56;;;-5.57;100.00
141;BME280;65;48.778;9.160;2022-12-17T00:44:01;98918.66;;;-5.51;100.00
141;BME280;65;48.778;9.160;2022-12-17T00:46:45;98917.81;;;-5.50;100.00
141;BME280;65;48.778;9.160;2022-12-17T00:49:28;98920.31;;;-5.56;100.00
141;BME280;65;48.778;9.160;2022-12-17T00:52:12;98924.56;;;-5.58;100.00
141;BME280;65;48.778;9.160;2022-12-17T00:54:56;98932.09;;;-5.75;100.00
141;BME280;65;48.778;9.160;2022-12-17T00:57:40;98937.19;;;-5.78;100.00
141;BME280;65;48.778;9.160;2022-12-17T01:00:23;98931.72;;;-6.02;100.00
141;BME280;65;48.778;9.160;2022-12-17T01:03:10;98940.97;;;-6.15;100.00
141;BME280;65;48.778;9.160;2022-12-17T01:06:01;98946.72;;;-6.31;100.00
141;BME280;65;48.778;9.160;2022-12-17T01:08:45;98946.53;;;-6.42;100.00
141;BME280;65;48.778;9.160;2022-12-17T01:11:29;98954.38;;;-6.34;100.00
141;BME280;65;48.778;9.160;2022-12-17T01:14:13;98953.44;;;-6.38;100.00
141;BME280;65;48.778;9.160;2022-12-17T01:16:57;98955.41;;;-6.23;100.00
141;BME280;65;48.778;9.160;2022-12-17T01:19:41;98947.78;;;-6.17;100.00
141;BME280;65;48.778;9.160;2022-12-17T01:22:28;98951.19;;;-6.19;100.00
141;BME280;65;48.778;9.160;2022-12-17T01:25:11;98950.13;;;-6.32;100.00
141;BME280;65;48.778;9.160;2022-12-17T01:27:56;98956.81;;;-6.40;100.00
141;BME280;65;48.778;9.160;2022-12-17T01:30:39;98950.66;;;-6.51;100.00
141;BME280;65;48.778;9.160;2022-12-17T01:33:23;98951.59;;;-6.45;100.00
141;BME280;65;48.778;9.160;2022-12-17T01:36:07;98954.06;;;-6.52;100.00
141;BME280;65;48.778;9.160;2022-12-17T01:38:51;98957.03;;;-6.29;100.00
141;BME280;65;48.778;9.160;2022-12-17T01:41:35;98967.84;;;-6.47;100.00
141;BME280;65;48.778;9.160;2022-12-17T01:47:21;98971.78;;;-6.69;100.00
141;BME280;65;48.778;9.160;2022-12-17T01:50:06;98975.88;;;-6.79;100.00
141;BME280;65;48.778;9.160;2022-12-17T01:52:54;98975.06;;;-6.76;100.00
141;BME280;65;48.778;9.160;2022-12-17T01:55:41;98982.81;;;-6.75;100.00
141;BME280;65;48.778;9.160;2022-12-17T01:58:25;98984.47;;;-6.78;100.00
141;BME280;65;48.778;9.160;2022-12-17T02:01:09;98991.25;;;-6.82;100.00
141;BME280;65;48.778;9.160;2022-12-17T02:03:53;98997.16;;;-6.86;100.00
141;BME280;65;48.778;9.160;2022-12-17T02:06:41;98996.28;;;-6.88;100.00
141;BME280;65;48.778;9.160;2022-12-17T02:12:40;99007.25;;;-6.95;100.00
141;BME280;65;48.778;9.160;2022-12-17T02:15:32;99006.72;;;-6.79;100.00
141;BME280;65;48.778;9.160;2022-12-17T02:18:21;99018.16;;;-6.61;100.00
141;BME280;65;48.778;9.160;2022-12-17T02:21:09;99022.63;;;-6.51;100.00
141;BME280;65;48.778;9.160;2022-12-17T02:26:43;99016.59;;;-6.53;100.00
141;BME280;65;48.778;9.160;2022-12-17T02:29:34;99010.63;;;-6.51;100.00
141;BME280;65;48.778;9.160;2022-12-17T02:32:19;99015.81;;;-6.49;100.00
141;BME280;65;48.778;9.160;2022-12-17T02:35:13;99017.31;;;-6.60;100.00
141;BME280;65;48.778;9.160;2022-12-17T02:38:18;99019.63;;;-6.76;100.00
141;BME280;65;48.778;9.160;2022-12-17T02:41:04;99029.06;;;-6.75;100.00
141;BME280;65;48.778;9.160;2022-12-17T02:43:50;99025.47;;;-6.83;100.00
141;BME280;65;48.778;9.160;2022-12-17T02:46:37;99028.78;;;-6.90;100.00
141;BME280;65;48.778;9.160;2022-12-17T02:49:21;99034.75;;;-6.91;100.00
141;BME280;65;48.778;9.160;2022-12-17T02:52:06;99037.28;;;-6.92;100.00
141;BME280;65;48.778;9.160;2022-12-17T02:54:53;99044.53;;;-6.72;100.00
141;BME280;65;48.778;9.160;2022-12-17T02:57:37;99044.50;;;-6.73;100.00
141;BME280;65;48.778;9.160;2022-12-17T03:00:21;99038.44;;;-6.77;100.00
141;BME280;65;48.778;9.160;2022-12-17T03:03:09;99045.38;;;-6.73;100.00
141;BME280;65;48.778;9.160;2022-12-17T03:05:53;99051.47;;;-6.67;100.00
141;BME280;65;48.778;9.160;2022-12-17T03:08:40;99057.59;;;-6.59;100.00
141;BME280;65;48.778;9.160;2022-12-17T03:11:28;99062.19;;;-6.43;100.00
141;BME280;65;48.778;9.160;2022-12-17T03:14:12;99058.25;;;-6.26;100.00
141;BME280;65;48.778;9.160;2022-12-17T03:16:57;99064.63;;;-6.02;100.00
141;BME280;65;48.778;9.160;2022-12-17T03:19:41;99066.59;;;-5.85;100.00
141;BME280;65;48.778;9.160;2022-12-17T03:22:28;99066.75;;;-5.77;100.00
141;BME280;65;48.778;9.160;2022-12-17T03:25:12;99068.34;;;-5.82;100.00
141;BME280;65;48.778;9.160;2022-12-17T03:28:04;99080.25;;;-5.89;100.00
141;BME280;65;48.778;9.160;2022-12-17T03:30:48;99076.88;;;-5.85;100.00
141;BME280;65;48.778;9.160;2022-12-17T03:33:32;99078.84;;;-5.71;100.00
141;BME280;65;48.778;9.160;2022-12-17T03:36:15;99079.94;;;-5.56;100.00
141;BME280;65;48.778;9.160;2022-12-17T03:38:59;99068.94;;;-5.44;100.00
141;BME280;65;48.778;9.160;2022-12-17T03:41:44;99079.47;;;-5.27;100.00
141;BME280;65;48.778;9.160;2022-12-17T03:44:28;99073.59;;;-5.20;100.00
141;BME280;65;48.778;9.160;2022-12-17T03:47:11;99076.94;;;-5.24;100.00
141;BME280;65;48.778;9.160;2022-12-17T03:49:55;99078.63;;;-5.28;100.00
141;BME280;65;48.778;9.160;2022-12-17T03:52:40;99093.22;;;-5.27;100.00
141;BME280;65;48.778;9.160;2022-12-17T03:55:24;99093.25;;;-5.25;100.00
141;BME280;65;48.778;9.160;2022-12-17T03:58:08;99087.34;;;-5.20;100.00
141;BME280;65;48.778;9.160;2022-12-17T04:00:51;99074.47;;;-5.20;100.00
141;BME280;65;48.778;9.160;2022-12-17T04:03:35;99079.66;;;-5.15;100.00
141;BME280;65;48.778;9.160;2022-12-17T04:06:19;99085.84;;;-5.02;100.00
141;BME280;65;48.778;9.160;2022-12-17T04:09:03;99086.69;;;-5.03;100.00
141;BME280;65;48.778;9.160;2022-12-17T04:11:47;99092.78;;;-4.98;100.00
141;BME280;65;48.778;9.160;2022-12-17T04:14:31;99092.84;;;-4.94;100.00
141;BME280;65;48.778;9.160;2022-12-17T04:17:14;99095.28;;;-5.03;100.00
141;BME280;65;48.778;9.160;2022-12-17T04:19:58;99099.66;;;-4.97;100.00
141;BME280;65;48.778;9.160;2022-12-17T04:22:42;99101.28;;;-5.04;100.00
141;BME280;65;48.778;9.160;2022-12-17T04:25:26;99115.88;;;-5.06;100.00
141;BME280;65;48.778;9.160;2022-12-17T04:28:10;99109.88;;;-5.05;100.00
141;BME280;65;48.778;9.160;2022-12-17T04:30:53;99116.84;;;-4.98;100.00
141;BME280;65;48.778;9.160;2022-12-17T04:33:37;99116.97;;;-4.87;100.00
141;BME280;65;48.778;9.160;2022-12-17T04:36:20;99119.59;;;-4.83;100.00
141;BME280;65;48.778;9.160;2022-12-17T04:39:04;99115.31;;;-4.82;100.00
141;BME280;65;48.778;9.160;2022-12-17T04:41:48;99123.91;;;-4.82;100.00
141;BME280;65;48.778;9.160;2022-12-17T04:44:31;99127.28;;;-4.87;100.00
141;BME280;65;48.778;9.160;2022-12-17T04:47:15;99117.78;;;-4.91;100.00
141;BME280;65;48.778;9.160;2022-12-17T04:49:59;99122.06;;;-4.92;100.00
141;BME280;65;48.778;9.160;2022-12-17T04:52:42;99131.44;;;-4.97;100.00
141;BME280;65;48.778;9.160;2022-12-17T04:55:26;99132.28;;;-4.98;100.00
141;BME280;65;48.778;9.160;2022-12-17T04:58:10;99147.69;;;-5.02;100.00
141;BME280;65;48.778;9.160;2022-12-17T05:00:54;99142.56;;;-5.01;100.00
141;BME280;65;48.778;9.160;2022-12-17T05:03:38;99147.69;;;-5.04;100.00
141;BME280;65;48.778;9.160;2022-12-17T05:06:23;99149.38;;;-5.04;100.00
141;BME280;65;48.778;9.160;2022-12-17T05:12:31;99158.06;;;-4.99;100.00
141;BME280;65;48.778;9.160;2022-12-17T05:15:14;99158.09;;;-4.96;100.00
141;BME280;65;48.778;9.160;2022-12-17T05:18:07;99157.31;;;-4.91;100.00
141;BME280;65;48.778;9.160;2022-12-17T05:20:51;99156.59;;;-4.81;100.00
141;BME280;65;48.778;9.160;2022-12-17T05:23:34;99157.50;;;-4.75;100.00
141;BME280;65;48.778;9.160;2022-12-17T05:26:22;99164.44;;;-4.70;100.00
141;BME280;65;48.778;9.160;2022-12-17T05:29:06;99166.34;;;-4.60;100.00
141;BME280;65;48.778;9.160;2022-12-17T05:31:50;99174.81;;;-4.67;100.00
141;BME280;65;48.778;9.160;2022-12-17T05:34:34;99174.78;;;-4.68;100.00
141;BME280;65;48.778;9.160;2022-12-17T05:37:18;99178.13;;;-4.75;100.00
141;BME280;65;48.778;9.160;2022-12-17T05:40:03;99178.13;;;-4.75;100.00
141;BME280;65;48.778;9.160;2022-12-17T05:43:13;99171.31;;;-4.70;100.00
141;BME280;65;48.778;9.160;2022-12-17T05:45:57;99174.75;;;-4.71;100.00
141;BME280;65;48.778;9.160;2022-12-17T05:48:42;99174.91;;;-4.62;100.00
141;BME280;65;48.778;9.160;2022-12-17T05:51:26;99187.78;;;-4.62;100.00
141;BME280;65;48.778;9.160;2022-12-17T05:54:29;99191.94;;;-4.72;100.00
141;BME280;65;48.778;9.160;2022-12-17T05:57:32;99196.19;;;-4.75;100.00
141;BME280;65;48.778;9.160;2022-12-17T06:00:16;99196.97;;;-4.80;100.00
141;BME280;65;48.778;9.160;2022-12-17T06:03:02;99196.84;;;-4.89;100.00
141;BME280;65;48.778;9.160;2022-12-17T06:05:46;99204.56;;;-4.90;100.00
141;BME280;65;48.778;9.160;2022-12-17T06:08:31;99209.47;;;-5.08;100.00
141;BME280;65;48.778;9.160;2022-12-17T06:11:15;99211.72;;;-5.27;100.00
141;BME280;65;48.778;9.160;2022-12-17T06:13:58;99216.19;;;-5.18;100.00
141;BME280;65;48.778;9.160;2022-12-17T06:16:42;99219.75;;;-5.08;100.00
141;BME280;65;48.778;9.160;2022-12-17T06:19:26;99213.81;;;-5.04;100.00
141;BME280;65;48.778;9.160;2022-12-17T06:22:10;99218.06;;;-5.06;100.00
141;BME280;65;48.778;9.160;2022-12-17T06:24:53;99217.94;;;-5.16;100.00
141;BME280;65;48.778;9.160;2022-12-17T06:27:38;99222.00;;;-5.28;100.00
141;BME280;65;48.778;9.160;2022-12-17T06:30:22;99226.97;;;-5.39;100.00
141;BME280;65;48.778;9.160;2022-12-17T06:33:09;99223.44;;;-5.46;100.00
141;BME280;65;48.778;9.160;2022-12-17T06:35:53;99223.44;;;-5.46;100.00
141;BME280;65;48.778;9.160;2022-12-17T06:38:38;99237.69;;;-5.64;100.00
141;BME280;65;48.778;9.160;2022-12-17T06:41:22;99240.34;;;-5.61;100.00
141;BME280;65;48.778;9.160;2022-12-17T06:44:06;99241.19;;;-5.62;100.00
141;BME280;65;48.778;9.160;2022-12-17T06:46:50;99241.31;;;-5.55;100.00
141;BME280;65;48.778;9.160;2022-12-17T06:49:33;99255.22;;;-5.45;100.00
141;BME280;65;48.778;9.160;2022-12-17T06:52:17;99257.75;;;-5.47;100.00
141;BME280;65;48.778;9.160;2022-12-17T06:55:02;99250.31;;;-5.30;100.00
141;BME280;65;48.778;9.160;2022-12-17T06:57:46;99253.84;;;-5.23;100.00
141;BME280;65;48.778;9.160;2022-12-17T07:00:29;99252.03;;;-5.29;100.00
141;BME280;65;48.778;9.160;2022-12-17T07:03:13;99259.66;;;-5.35;100.00
141;BME280;65;48.778;9.160;2022-12-17T07:06:00;99257.69;;;-5.50;100.00
141;BME280;65;48.778;9.160;2022-12-17T07:08:44;99259.53;;;-5.43;100.00
141;BME280;65;48.778;9.160;2022-12-17T07:11:28;99274.28;;;-5.34;100.00
141;BME280;65;48.778;9.160;2022-12-17T07:14:19;99272.25;;;-5.52;100.00
141;BME280;65;48.778;9.160;2022-12-17T07:17:03;99279.13;;;-5.52;100.00
141;BME280;65;48.778;9.160;2022-12-17T07:19:47;99278.34;;;-5.47;100.00
141;BME280;65;48.778;9.160;2022-12-17T07:22:30;99279.22;;;-5.46;100.00
141;BME280;65;48.778;9.160;2022-12-17T07:25:14;99281.91;;;-5.40;100.00
141;BME280;65;48.778;9.160;2022-12-17T07:27:58;99295.44;;;-5.52;100.00
141;BME280;65;48.778;9.160;2022-12-17T07:30:42;99298.09;;;-5.47;100.00
141;BME280;65;48.778;9.160;2022-12-17T07:33:26;99291.22;;;-5.48;100.00
141;BME280;65;48.778;9.160;2022-12-17T07:36:09;99304.09;;;-5.47;100.00
141;BME280;65;48.778;9.160;2022-12-17T07:38:53;99314.50;;;-5.42;100.00
141;BME280;65;48.778;9.160;2022-12-17T07:41:37;99315.53;;;-5.32;100.00
141;BME280;65;48.778;9.160;2022-12-17T07:44:21;99317.97;;;-5.40;100.00
141;BME280;65;48.778;9.160;2022-12-17T07:47:04;99327.44;;;-5.37;100.00
141;BME280;65;48.778;9.160;2022-12-17T07:49:48;99332.78;;;-5.27;100.00
141;BME280;65;48.778;9.160;2022-12-17T07:52:32;99331.16;;;-5.68;100.00
141;BME280;65;48.778;9.160;2022-12-17T07:55:15;99334.00;;;-5.55;100.00
141;BME280;65;48.778;9.160;2022-12-17T07:58:01;99332.94;;;-5.66;100.00
141;BME280;65;48.778;9.160;2022-12-17T08:00:46;99343.81;;;-5.35;100.00
141;BME280;65;48.778;9.160;2022-12-17T08:03:29;99349.31;;;-5.17;100.00
141;BME280;65;48.778;9.160;2022-12-17T08:06:13;99347.75;;;-5.09;100.00
141;BME280;65;48.778;9.160;2022-12-17T08:08:57;99349.47;;;-5.08;100.00
141;BME280;65;48.778;9.160;2022-12-17T08:11:41;99353.78;;;-5.07;100.00
141;BME280;65;48.778;9.160;2022-12-17T08:14:24;99355.56;;;-5.03;100.00
141;BME280;65;48.778;9.160;2022-12-17T08:17:08;99360.06;;;-4.91;100.00
141;BME280;65;48.778;9.160;2022-12-17T08:19:52;99368.50;;;-5.00;100.00
141;BME280;65;48.778;9.160;2022-12-17T08:22:35;99375.09;;;-5.17;100.00
141;BME280;65;48.778;9.160;2022-12-17T08:25:19;99370.31;;;-4.96;100.00
141;BME280;65;48.778;9.160;2022-12-17T08:28:03;99373.31;;;-4.70;100.00
141;BME280;65;48.778;9.160;2022-12-17T08:30:48;99374.22;;;-4.66;100.00
141;BME280;65;48.778;9.160;2022-12-17T08:33:32;99371.81;;;-4.59;100.00
141;BME280;65;48.778;9.160;2022-12-17T08:36:16;99382.22;;;-4.53;100.00
141;BME280;65;48.778;9.160;2022-12-17T08:39:01;99381.97;;;-4.66;100.00
141;BME280;65;48.778;9.160;2022-12-17T08:41:46;99384.53;;;-4.68;100.00
141;BME280;65;48.778;9.160;2022-12-17T08:44:30;99388.63;;;-4.79;100.00
141;BME280;65;48.778;9.160;2022-12-17T08:47:13;99391.97;;;-4.85;100.00
141;BME280;65;48.778;9.160;2022-12-17T08:49:57;99403.03;;;-4.92;100.00
141;BME280;65;48.778;9.160;2022-12-17T08:52:41;99402.91;;;-4.98;100.00
141;BME280;65;48.778;9.160;2022-12-17T08:55:25;99413.94;;;-5.06;100.00
141;BME280;65;48.778;9.160;2022-12-17T08:58:09;99409.63;;;-4.59;100.00
141;BME280;65;48.778;9.160;2022-12-17T09:00:57;99409.13;;;-4.35;100.00
141;BME280;65;48.778;9.160;2022-12-17T09:03:42;99411.78;;;-4.31;100.00
141;BME280;65;48.778;9.160;2022-12-17T09:06:26;99415.53;;;-4.10;100.00
141;BME280;65;48.778;9.160;2022-12-17T09:09:10;99420.66;;;-4.14;100.00
141;BME280;65;48.778;9.160;2022-12-17T09:11:54;99425.97;;;-4.04;100.00
141;BME280;65;48.778;9.160;2022-12-17T09:14:38;99430.34;;;-4.00;100.00
141;BME280;65;48.778;9.160;2022-12-17T09:17:21;99431.19;;;-4.01;98.74
141;BME280;65;48.778;9.160;2022-12-17T09:20:05;99434.34;;;-4.19;100.00
141;BME280;65;48.778;9.160;2022-12-17T09:22:49;99427.56;;;-4.13;100.00
141;BME280;65;48.778;9.160;2022-12-17T09:25:35;99428.69;;;-3.97;99.05
141;BME280;65;48.778;9.160;2022-12-17T09:28:18;99436.09;;;-4.17;99.03
141;BME280;65;48.778;9.160;2022-12-17T09:31:02;99439.47;;;-4.21;100.00
141;BME280;65;48.778;9.160;2022-12-17T09:33:46;99430.09;;;-4.16;100.00
141;BME280;65;48.778;9.160;2022-12-17T09:36:30;99440.78;;;-3.93;100.00
141;BME280;65;48.778;9.160;2022-12-17T09:39:14;99443.16;;;-4.05;100.00
141;BME280;65;48.778;9.160;2022-12-17T09:42:19;99433.66;;;-4.06;100.00
141;BME280;65;48.778;9.160;2022-12-17T09:51:04;99438.09;;;-4.00;100.00
141;BME280;65;48.778;9.160;2022-12-17T09:53:49;99451.78;;;-4.04;100.00
141;BME280;65;48.778;9.160;2022-12-17T09:56:35;99444.19;;;-3.33;95.84
141;BME280;65;48.778;9.160;2022-12-17T10:02:17;99427.59;;;-2.75;90.80
141;BME280;65;48.778;9.160;2022-12-17T10:05:04;99433.47;;;-2.90;90.05
141;BME280;65;48.778;9.160;2022-12-17T10:07:50;99432.56;;;-2.92;89.24
141;BME280;65;48.778;9.160;2022-12-17T10:10:42;99441.63;;;-3.30;90.73
141;BME280;65;48.778;9.160;2022-12-17T10:13:26;99428.75;;;-3.26;91.49
141;BME280;65;48.778;9.160;2022-12-17T10:16:32;99428.91;;;-3.13;92.68
141;BME280;65;48.778;9.160;2022-12-17T10:22:14;99433.94;;;-3.24;92.46
141;BME280;65;48.778;9.160;2022-12-17T10:25:15;99439.31;;;-3.74;94.50
141;BME280;65;48.778;9.160;2022-12-17T10:28:01;99434.78;;;-3.92;97.33
141;BME280;65;48.778;9.160;2022-12-17T10:30:46;99440.84;;;-3.23;94.13
141;BME280;65;48.778;9.160;2022-12-17T10:33:35;99434.66;;;-2.56;91.49
141;BME280;65;48.778;9.160;2022-12-17T10:36:21;99436.59;;;-2.32;87.12
141;BME280;65;48.778;9.160;2022-12-17T10:39:19;99439.47;;;-2.91;88.97
141;BME280;65;48.778;9.160;2022-12-17T10:42:19;99448.69;;;-3.80;95.61
141;BME280;65;48.778;9.160;2022-12-17T10:45:32;99445.75;;;-3.44;95.34
141;BME280;65;48.778;9.160;2022-12-17T10:48:28;99440.38;;;-3.58;95.45
141;BME280;65;48.778;9.160;2022-12-17T10:51:33;99435.88;;;-3.73;94.27
141;BME280;65;48.778;9.160;2022-12-17T10:54:27;99426.50;;;-3.66;95.39
141;BME280;65;48.778;9.160;2022-12-17T10:57:23;99432.91;;;-3.38;95.00
141;BME280;65;48.778;9.160;2022-12-17T11:00:28;99431.72;;;-3.62;94.76
141;BME280;65;48.778;9.160;2022-12-17T11:06:35;99434.72;;;-3.33;93.98
141;BME280;65;48.778;9.160;2022-12-17T11:09:29;99436.34;;;-3.39;92.34
141;BME280;65;48.778;9.160;2022-12-17T11:12:16;99445.84;;;-3.38;94.44
141;BME280;65;48.778;9.160;2022-12-17T11:15:20;99436.38;;;-3.36;94.39
141;BME280;65;48.778;9.160;2022-12-17T11:18:05;99443.47;;;-3.20;93.48
141;BME280;65;48.778;9.160;2022-12-17T11:21:05;99445.28;;;-3.13;93.02
141;BME280;65;48.778;9.160;2022-12-17T11:23:50;99453.44;;;-3.47;93.75
141;BME280;65;48.778;9.160;2022-12-17T11:26:36;99448.38;;;-3.41;93.87
141;BME280;65;48.778;9.160;2022-12-17T11:29:22;99453.00;;;-3.16;93.49
141;BME280;65;48.778;9.160;2022-12-17T11:32:35;99455.28;;;-2.65;91.29
141;BME280;65;48.778;9.160;2022-12-17T11:41:13;99456.13;;;-2.67;89.74
141;BME280;65;48.778;9.160;2022-12-17T11:47:32;99461.38;;;-2.58;89.92
141;BME280;65;48.778;9.160;2022-12-17T11:57:16;99451.19;;;-2.41;88.05
141;BME280;65;48.778;9.160;2022-12-17T12:00:23;99446.78;;;-2.51;88.21
141;BME280;65;48.778;9.160;2022-12-17T12:09:14;99456.91;;;-2.76;91.18
141;BME280;65;48.778;9.160;2022-12-17T12:15:16;99459.03;;;-3.15;91.27
141;BME280;65;48.778;9.160;2022-12-17T12:18:09;99454.31;;;-2.77;92.05
141;BME280;65;48.778;9.160;2022-12-17T12:21:24;99453.03;;;-2.30;88.61
141;BME280;65;48.778;9.160;2022-12-17T12:33:53;99450.50;;;-2.24;88.47
141;BME280;65;48.778;9.160;2022-12-17T12:36:41;99451.38;;;-2.21;87.80
141;BME280;65;48.778;9.160;2022-12-17T12:39:49;99449.75;;;-2.10;86.37
141;BME280;65;48.778;9.160;2022-12-17T12:42:46;99453.22;;;-2.08;85.92
141;BME280;65;48.778;9.160;2022-12-17T12:45:42;99442.41;;;-2.60;89.35
141;BME280;65;48.778;9.160;2022-12-17T12:48:50;99449.44;;;-2.45;89.46
141;BME280;65;48.778;9.160;2022-12-17T12:51:37;99443.47;;;-2.37;88.47
141;BME280;65;48.778;9.160;2022-12-17T12:57:38;99434.41;;;-2.84;91.92
141;BME280;65;48.778;9.160;2022-12-17T13:03:12;99448.25;;;-2.79;91.81
141;BME280;65;48.778;9.160;2022-12-17T13:06:49;99452.50;;;-2.84;91.73
141;BME280;65;48.778;9.160;2022-12-17T13:14:34;99446.97;;;-3.15;91.66
141;BME280;65;48.778;9.160;2022-12-17T13:17:07;99445.13;;;-3.25;93.73
141;BME280;65;48.778;9.160;2022-12-17T13:25:21;99446.72;;;-3.36;93.12
141;BME280;65;48.778;9.160;2022-12-17T13:27:48;99442.38;;;-3.40;93.62
141;BME280;65;48.778;9.160;2022-12-17T13:41:06;99441.09;;;-3.70;96.63
141;BME280;65;48.778;9.160;2022-12-17T13:43:47;99447.28;;;-3.59;96.04
141;BME280;65;48.778;9.160;2022-12-17T13:46:21;99440.44;;;-3.54;96.25
141;BME280;65;48.778;9.160;2022-12-17T13:48:57;99436.16;;;-3.52;95.11
141;BME280;65;48.778;9.160;2022-12-17T13:51:26;99443.91;;;-3.52;94.65
141;BME280;65;48.778;9.160;2022-12-17T13:53:57;99455.94;;;-3.55;95.05
141;BME280;65;48.778;9.160;2022-12-17T13:56:34;99455.75;;;-3.69;95.77
141;BME280;65;48.778;9.160;2022-12-17T13:59:02;99447.03;;;-3.77;96.97
141;BME280;65;48.778;9.160;2022-12-17T14:01:28;99448.69;;;-3.80;97.30
141;BME280;65;48.778;9.160;2022-12-17T14:03:58;99447.75;;;-3.87;97.20
141;BME280;65;48.778;9.160;2022-12-17T14:06:44;99455.44;;;-3.90;96.99
141;BME280;65;48.778;9.160;2022-12-17T14:09:18;99453.44;;;-4.06;98.20
141;BME280;65;48.778;9.160;2022-12-17T14:11:43;99468.25;;;-3.98;97.89
141;BME280;65;48.778;9.160;2022-12-17T14:14:33;99467.31;;;-4.01;98.09
141;BME280;65;48.778;9.160;2022-12-17T14:16:59;99472.38;;;-4.06;98.51
141;BME280;65;48.778;9.160;2022-12-17T14:19:26;99482.69;;;-4.07;99.44
141;BME280;65;48.778;9.160;2022-12-17T14:21:52;99469.66;;;-4.17;100.00
141;BME280;65;48.778;9.160;2022-12-17T14:24:21;99469.69;;;-4.14;100.00
141;BME280;65;48.778;9.160;2022-12-17T14:26:56;99476.56;;;-4.14;99.71
141;BME280;65;48.778;9.160;2022-12-17T14:29:25;99477.34;;;-4.20;100.00
141;BME280;65;48.778;9.160;2022-12-17T14:31:53;99476.34;;;-4.28;99.99
141;BME280;65;48.778;9.160;2022-12-17T14:34:19;99477.09;;;-4.35;100.00
141;BME280;65;48.778;9.160;2022-12-17T14:36:45;99483.91;;;-4.38;100.00
141;BME280;65;48.778;9.160;2022-12-17T14:39:17;99489.03;;;-4.41;100.00
141;BME280;65;48.778;9.160;2022-12-17T14:41:43;99488.09;;;-4.45;100.00
141;BME280;65;48.778;9.160;2022-12-17T14:44:29;99486.38;;;-4.44;100.00
141;BME280;65;48.778;9.160;2022-12-17T14:50:33;99484.47;;;-4.56;100.00
141;BME280;65;48.778;9.160;2022-12-17T14:52:54;99491.25;;;-4.61;100.00
141;BME280;65;48.778;9.160;2022-12-17T14:55:35;99486.75;;;-4.71;100.00
141;BME280;65;48.778;9.160;2022-12-17T15:03:10;99493.16;;;-4.96;100.00
141;BME280;65;48.778;9.160;2022-12-17T15:05:39;99492.28;;;-4.97;100.00
141;BME280;65;48.778;9.160;2022-12-17T15:08:05;99490.25;;;-5.13;100.00
141;BME280;65;48.778;9.160;2022-12-17T15:10:30;99500.28;;;-5.25;100.00
141;BME280;65;48.778;9.160;2022-12-17T15:12:56;99494.91;;;-5.36;100.00
141;BME280;65;48.778;9.160;2022-12-17T15:15:21;99496.22;;;-5.55;100.00
141;BME280;65;48.778;9.160;2022-12-17T15:17:47;99502.78;;;-5.69;100.00
141;BME280;65;48.778;9.160;2022-12-17T15:20:18;99502.84;;;-5.66;100.00
141;BME280;65;48.778;9.160;2022-12-17T15:22:45;99497.56;;;-5.72;100.00
141;BME280;65;48.778;9.160;2022-12-17T15:25:16;99498.03;;;-5.88;100.00
141;BME280;65;48.778;9.160;2022-12-17T15:27:42;99496.91;;;-6.01;100.00
141;BME280;65;48.778;9.160;2022-12-17T15:30:12;99491.50;;;-6.12;100.00
141;BME280;65;48.778;9.160;2022-12-17T15:32:38;99492.25;;;-6.17;100.00
141;BME280;65;48.778;9.160;2022-12-17T15:35:04;99498.22;;;-6.18;100.00
141;BME280;65;48.778;9.160;2022-12-17T15:37:29;99515.97;;;-6.29;100.00
141;BME280;65;48.778;9.160;2022-12-17T15:39:55;99512.19;;;-6.42;100.00
141;BME280;65;48.778;9.160;2022-12-17T15:42:23;99520.78;;;-6.41;100.00
141;BME280;65;48.778;9.160;2022-12-17T15:45:09;99523.03;;;-6.20;100.00
141;BME280;65;48.778;9.160;2022-12-17T15:47:34;99516.97;;;-5.85;100.00
141;BME280;65;48.778;9.160;2022-12-17T15:49:59;99514.47;;;-5.82;100.00
141;BME280;65;48.778;9.160;2022-12-17T15:55:58;99522.88;;;-5.90;100.00
141;BME280;65;48.778;9.160;2022-12-17T15:58:24;99528.16;;;-5.84;100.00
141;BME280;65;48.778;9.160;2022-12-17T16:00:49;99523.53;;;-5.99;100.00
141;BME280;65;48.778;9.160;2022-12-17T16:03:15;99526.88;;;-6.03;100.00
141;BME280;65;48.778;9.160;2022-12-17T16:05:40;99526.91;;;-6.01;100.00
141;BME280;65;48.778;9.160;2022-12-17T16:08:05;99531.22;;;-6.00;100.00
141;BME280;65;48.778;9.160;2022-12-17T16:10:31;99532.34;;;-5.88;100.00
141;BME280;65;48.778;9.160;2022-12-17T16:12:57;99533.03;;;-5.96;100.00
141;BME280;65;48.778;9.160;2022-12-17T16:15:23;99542.22;;;-6.08;100.00
141;BME280;65;48.778;9.160;2022-12-17T16:17:48;99550.69;;;-6.12;100.00
141;BME280;65;48.778;9.160;2022-12-17T16:20:14;99543.56;;;-6.22;100.00
141;BME280;65;48.778;9.160;2022-12-17T16:22:39;99544.38;;;-6.24;100.00
141;BME280;65;48.778;9.160;2022-12-17T16:25:05;99546.19;;;-6.20;100.00
141;BME280;65;48.778;9.160;2022-12-17T16:27:31;99547.47;;;-6.36;100.00
141;BME280;65;48.778;9.160;2022-12-17T16:29:56;99544.63;;;-6.47;100.00
141;BME280;65;48.778;9.160;2022-12-17T16:32:22;99540.22;;;-6.19;100.00
141;BME280;65;48.778;9.160;2022-12-17T16:34:47;99544.78;;;-6.41;100.00
141;BME280;65;48.778;9.160;2022-12-17T16:37:13;99546.00;;;-6.59;100.00
141;BME280;65;48.778;9.160;2022-12-17T16:39:38;99547.00;;;-6.54;100.00
141;BME280;65;48.778;9.160;2022-12-17T16:42:04;99548.41;;;-6.34;100.00
141;BME280;65;48.778;9.160;2022-12-17T16:44:29;99539.41;;;-6.50;100.00
141;BME280;65;48.778;9.160;2022-12-17T16:46:54;99547.53;;;-6.66;100.00
141;BME280;65;48.778;9.160;2022-12-17T16:49:21;99545.47;;;-6.79;100.00
141;BME280;65;48.778;9.160;2022-12-17T16:51:51;99549.75;;;-6.80;100.00
141;BME280;65;48.778;9.160;2022-12-17T16:54:19;99546.50;;;-6.73;100.00